Latest Weather Observations for Shepparton

IDV60801

Issued at 1:32 pm EST Sunday 25 September 2016 (issued every 30 minutes, with the page automatically refreshed every 10 minutes)

About weather observations | Map of weather stations | Latest weather observations for VIC | Other Formats
Station Details ID: 081125 Name: SHEPPARTON AIRPORT Lat: -36.43 Lon: 145.39 Height: 113.9 m
Data from the previous 72 hours. | See also: Recent months at Shepparton
Date/Time
EST
Temp
°C
App
Temp
°C
Dew
Point
°C
Rel
Hum
%
Delta-T
°C
Wind Press
QNH
hPa
Press
MSL
hPa
Rain since
9am
mm
Dir  Spd
km/h
Gust
km/h
Spd
kts
Gust
kts
25/01:30pm 14.3 9.5 4.9 53 4.4 SSW 19 28 10 15 1011.1 1011.1 0.0
25/01:00pm 14.6 10.0 5.4 54 4.4 SW 19 32 10 17 1011.1 1011.1 0.0
25/12:30pm 14.8 10.1 5.9 55 4.3 SW 20 26 11 14 1011.2 1011.2 0.0
25/12:00pm 14.6 9.5 6.2 57 4.1 SSW 22 32 12 17 1011.2 1011.2 0.0
25/11:30am 13.8 8.5 4.9 55 4.2 SW 22 35 12 19 1011.2 1011.2 0.0
25/11:00am 13.6 8.8 5.7 59 3.8 SW 20 35 11 19 1011.4 1011.4 0.0
25/10:30am 12.8 8.1 6.2 64 3.1 SW 20 32 11 17 1011.4 1011.4 0.0
25/10:00am 13.2 7.9 7.0 66 3.0 SW 24 35 13 19 1011.4 1011.4 0.0
25/09:30am 12.5 7.7 7.4 71 2.5 SSW 22 30 12 16 1011.1 1011.1 0.0
25/09:00am 12.1 7.8 7.2 72 2.4 SSW 19 28 10 15 1010.7 1010.7 2.0
25/08:30am 12.0 5.7 7.3 73 2.3 SSW 30 43 16 23 1010.4 1010.4 2.0
25/08:00am 11.4 5.9 7.5 77 1.9 SSW 26 37 14 20 1010.0 1010.1 2.0
25/07:30am 10.3 5.5 7.5 83 1.3 SSW 22 30 12 16 1009.4 1009.5 2.0
25/07:00am 10.5 6.5 8.9 90 0.8 SSW 20 28 11 15 1009.1 1009.2 2.0
25/06:30am 10.5 6.8 9.3 92 0.6 SSW 19 24 10 13 1008.8 1008.9 2.0
25/06:17am 10.5 6.8 9.4 93 0.6 SSW 19 32 10 17 1008.5 1008.6 2.0
25/06:00am 10.5 8.2 10.3 99 0.1 WSW 13 20 7 11 1008.2 1008.3 2.0
25/05:30am 10.6 9.4 10.4 99 0.1 W 7 9 4 5 1007.8 1007.9 2.0
25/05:06am 10.4 9.4 10.2 99 0.1 NNW 6 11 3 6 1007.5 1007.6 2.0
25/05:00am 10.5 10.3 10.3 99 0.1 WNW 2 11 1 6 1007.4 1007.5 2.0
25/04:58am 10.3 10.4 10.1 99 0.1 CALM 0 0 0 0 1007.4 1007.5 2.0
25/04:30am 10.9 11.1 10.7 99 0.1 CALM 0 0 0 0 1007.3 1007.4 2.0
25/04:00am 10.9 11.1 10.7 99 0.1 CALM 0 0 0 0 1007.0 1007.0 2.0
25/03:30am 10.8 11.0 10.6 99 0.1 CALM 0 0 0 0 1007.0 1007.0 2.0
25/03:00am 11.1 11.4 10.9 99 0.1 CALM 0 0 0 0 1007.0 1007.0 1.8
25/02:30am 11.1 10.3 10.9 99 0.1 W 6 9 3 5 1007.4 1007.5 1.8
25/02:00am 11.2 9.8 11.0 99 0.1 W 9 13 5 7 1007.6 1007.7 1.4
25/01:30am 11.4 10.1 11.1 98 0.2 W 9 13 5 7 1007.7 1007.8 1.2
25/01:00am 11.7 9.9 10.8 94 0.5 W 11 15 6 8 1007.7 1007.8 1.0
25/12:30am 12.4 12.8 11.3 93 0.6 CALM 0 0 0 0 1007.5 1007.6 0.0
25/12:00am 12.3 12.8 11.5 95 0.4 CALM 0 6 0 3 1007.6 1007.7 0.0
 
Date/Time
EST
Temp
°C
App
Temp
°C
Dew
Point
°C
Rel
Hum
%
Delta-T
°C
Wind Press
QNH
hPa
Press
MSL
hPa
Rain since
9am
mm
Dir  Spd
km/h
Gust
km/h
Spd
kts
Gust
kts
24/11:30pm 12.5 12.0 10.9 90 0.8 W 4 7 2 4 1007.7 1007.8 0.0
24/11:00pm 12.6 13.0 11.3 92 0.7 CALM 0 0 0 0 1007.7 1007.8 0.0
24/10:30pm 12.9 13.3 11.3 90 0.8 CALM 0 0 0 0 1007.6 1007.7 0.0
24/10:00pm 13.2 13.4 10.4 83 1.5 CALM 0 0 0 0 1007.6 1007.7 0.0
24/09:30pm 13.3 13.5 10.7 84 1.4 CALM 0 0 0 0 1007.6 1007.7 0.0
24/09:00pm 13.4 13.6 10.4 82 1.6 CALM 0 0 0 0 1007.7 1007.8 0.0
24/08:30pm 13.5 12.3 9.6 77 2.0 NNW 6 7 3 4 1007.8 1007.9 0.0
24/08:00pm 13.9 12.5 9.7 76 2.2 NNW 7 11 4 6 1007.6 1007.7 0.0
24/07:30pm 14.2 12.4 9.6 74 2.4 NNW 9 11 5 6 1007.5 1007.6 0.0
24/07:00pm 14.5 14.9 11.3 81 1.7 CALM 0 0 0 0 1007.3 1007.4 0.0
24/06:30pm 15.0 14.9 9.6 70 2.8 CALM 0 6 0 3 1007.2 1007.3 0.0
24/06:00pm 14.8 13.1 10.0 73 2.5 N 9 13 5 7 1007.3 1007.4 0.0
24/05:30pm 15.0 13.3 10.0 72 2.6 N 9 13 5 7 1007.6 1007.7 0.0
24/05:00pm 15.9 13.3 9.3 65 3.4 NNW 13 19 7 10 1007.7 1007.8 0.0
24/04:30pm 16.0 13.4 9.2 64 3.5 N 13 17 7 9 1007.5 1007.6 0.0
24/04:00pm 16.5 13.3 8.5 59 4.1 NNW 15 22 8 12 1007.5 1007.6 0.0
24/03:30pm 16.6 13.5 8.8 60 4.0 N 15 20 8 11 1007.5 1007.6 0.0
24/03:00pm 16.9 14.0 8.3 57 4.4 NNW 13 24 7 13 1007.6 1007.7 0.0
24/02:30pm 17.4 13.3 7.7 53 4.9 NNW 19 30 10 16 1008.0 1008.1 0.0
24/02:00pm 16.8 12.1 7.7 55 4.6 N 22 33 12 18 1008.4 1008.5 0.0
24/01:30pm 16.9 12.1 7.5 54 4.7 NNW 22 33 12 18 1008.7 1008.8 0.0
24/01:00pm 16.9 12.7 8.1 56 4.5 N 20 28 11 15 1008.4 1008.5 0.0
24/12:30pm 17.0 13.0 9.2 60 4.1 N 20 28 11 15 1008.8 1008.9 0.0
24/12:00pm 16.9 12.8 8.6 58 4.3 N 20 30 11 16 1009.3 1009.4 0.0
24/11:30am 16.8 13.4 9.0 60 4.1 N 17 30 9 16 1009.6 1009.7 0.0
24/11:00am 15.8 12.2 8.5 62 3.7 N 17 24 9 13 1009.9 1010.0 0.0
24/10:30am 16.3 12.9 10.4 68 3.1 NNE 19 26 10 14 1010.2 1010.2 0.0
24/10:00am 15.1 11.8 9.7 70 2.8 NNE 17 22 9 12 1010.8 1010.8 0.0
24/09:30am 15.0 11.7 9.6 70 2.8 NNE 17 22 9 12 1011.2 1011.2 0.0
24/09:00am 13.9 11.0 9.7 76 2.2 NNE 15 20 8 11 1011.3 1011.3 0.0
24/08:30am 13.2 10.8 10.0 81 1.7 NNE 13 17 7 9 1011.4 1011.4 0.0
24/08:00am 12.0 9.6 9.9 87 1.1 NNE 13 17 7 9 1011.5 1011.5 0.0
24/07:30am 10.8 8.8 10.2 96 0.3 NE 11 13 6 7 1011.7 1011.7 0.0
24/07:00am 9.7 7.9 9.6 99 0.1 NE 9 11 5 6 1011.5 1011.5 0.0
24/06:30am 9.3 7.8 9.2 99 0.0 NE 7 13 4 7 1011.3 1011.3 0.0
24/06:00am 8.9 7.5 8.8 99 0.0 NE 6 9 3 5 1011.3 1011.3 0.0
24/05:30am 9.2 8.3 9.1 99 0.0 NE 4 7 2 4 1011.1 1011.1 0.0
24/05:00am 8.5 7.0 8.4 99 0.0 NE 6 7 3 4 1010.9 1010.9 0.0
24/04:30am 8.1 6.5 8.0 99 0.0 NE 6 7 3 4 1010.8 1010.8 0.0
24/04:00am 8.1 7.6 8.0 99 0.0 CALM 0 0 0 0 1010.9 1010.9 0.0
24/03:30am 7.4 6.8 7.3 99 0.0 CALM 0 0 0 0 1011.0 1011.0 0.0
24/03:24am 7.4 6.8 7.3 99 0.0 CALM 0 0 0 0 1011.1 1011.1 0.0
24/03:04am 7.6 7.0 7.5 99 0.0 CALM 0 0 0 0 1011.3 1011.3 0.0
24/03:00am 7.9 7.4 7.8 99 0.0 CALM 0 0 0 0 1011.3 1011.3 0.0
24/02:59am 7.9 7.4 7.8 99 0.0 CALM 0 0 0 0 1011.4 1011.4 0.0
24/02:39am 8.3 7.9 8.2 99 0.0 CALM 0 0 0 0 1011.5 1011.5 0.0
24/02:30am 8.4 8.0 8.3 99 0.0 CALM 0 0 0 0 1011.6 1011.6 0.0
24/02:00am 8.6 8.3 8.5 99 0.0 CALM 0 0 0 0 1011.8 1011.8 0.0
24/01:30am 8.4 8.0 8.3 99 0.0 CALM 0 0 0 0 1011.9 1011.9 0.0
24/01:00am 8.7 8.4 8.6 99 0.0 CALM 0 0 0 0 1012.1 1012.1 0.0
24/12:30am 8.7 8.4 8.6 99 0.0 CALM 0 0 0 0 1012.0 1012.0 0.0
24/12:00am 9.1 8.9 9.0 99 0.0 CALM 0 0 0 0 1011.9 1011.9 0.0
 
Date/Time
EST
Temp
°C
App
Temp
°C
Dew
Point
°C
Rel
Hum
%
Delta-T
°C
Wind Press
QNH
hPa
Press
MSL
hPa
Rain since
9am
mm
Dir  Spd
km/h
Gust
km/h
Spd
kts
Gust
kts
23/11:30pm 9.8 9.8 9.7 99 0.1 CALM 0 0 0 0 1011.8 1011.8 0.0
23/11:00pm 9.9 9.9 9.8 99 0.1 CALM 0 0 0 0 1011.8 1011.8 0.0
23/10:30pm 10.1 10.1 9.8 98 0.2 CALM 0 0 0 0 1011.9 1011.9 0.0
23/10:00pm 10.4 10.4 9.9 97 0.3 CALM 0 0 0 0 1012.0 1012.0 0.0
23/09:30pm 11.2 11.5 11.0 99 0.1 CALM 0 0 0 0 1012.3 1012.3 0.0
23/09:00pm 11.8 12.2 11.3 97 0.3 CALM 0 0 0 0 1012.4 1012.4 0.0
23/08:30pm 12.1 12.6 11.5 96 0.3 CALM 0 0 0 0 1012.4 1012.4 0.0
23/08:00pm 12.7 13.1 11.4 92 0.7 CALM 0 0 0 0 1012.3 1012.3 0.0
23/07:30pm 13.7 14.1 11.4 86 1.2 CALM 0 0 0 0 1012.1 1012.1 0.0
23/07:00pm 13.8 14.1 11.0 83 1.5 CALM 0 0 0 0 1012.1 1012.1 0.0
23/06:30pm 14.5 14.0 12.2 86 1.3 NNW 6 7 3 4 1011.9 1011.9 0.0
23/06:00pm 15.4 14.3 10.6 73 2.6 NW 7 9 4 5 1011.8 1011.8 0.0
23/05:30pm 16.5 14.6 10.6 68 3.2 NNW 11 15 6 8 1011.6 1011.6 0.0
23/05:00pm 17.2 15.2 10.1 63 3.8 NNE 11 17 6 9 1011.6 1011.6 0.0
23/04:30pm 17.5 15.2 10.6 64 3.7 N 13 17 7 9 1011.7 1011.7 0.0
23/04:00pm 16.8 14.2 9.5 62 3.8 N 13 19 7 10 1011.7 1011.7 0.0
23/03:30pm 17.7 15.9 9.6 59 4.3 N 9 20 5 11 1011.8 1011.8 0.0
23/03:00pm 17.8 15.7 9.9 60 4.2 NNW 11 17 6 9 1012.0 1012.0 0.0
23/02:30pm 17.4 15.9 9.3 59 4.2 N 7 11 4 6 1012.5 1012.5 0.0
23/02:00pm 17.4 14.9 9.8 61 4.0 NNW 13 20 7 11 1012.9 1012.9 0.0
23/01:30pm 18.0 16.2 10.9 63 3.9 NNW 11 17 6 9 1013.2 1013.2 0.0
23/01:00pm 16.7 16.1 8.9 60 4.0 NNW 2 13 1 7 1013.5 1013.5 0.0
23/12:30pm 16.6 15.1 8.6 59 4.1 N 6 9 3 5 1013.9 1013.9 0.0
23/12:00pm 16.7 15.3 9.6 63 3.7 N 7 15 4 8 1014.5 1014.6 0.0
23/11:30am 15.8 13.8 8.8 63 3.6 NE 9 17 5 9 1014.9 1015.0 0.0
23/11:00am 15.4 13.8 8.2 62 3.6 NNE 6 13 3 7 1015.3 1015.4 0.0
23/10:30am 14.9 13.7 8.2 64 3.4 N 4 13 2 7 1015.7 1015.8 0.0
23/10:00am 14.3 12.8 8.3 67 3.0 ESE 6 13 3 7 1015.8 1015.9 0.0
23/09:30am 13.2 11.6 8.7 74 2.3 ESE 7 13 4 7 1015.8 1015.9 0.0
23/09:00am 11.7 9.9 8.0 78 1.8 SE 7 11 4 6 1016.0 1016.1 0.0
23/08:30am 10.8 8.6 7.7 81 1.5 SE 9 11 5 6 1016.0 1016.1 0.0
23/08:00am 9.3 7.0 7.3 87 0.9 S 9 11 5 6 1015.9 1016.0 0.0
23/07:30am 8.3 6.5 7.2 93 0.5 SSE 6 9 3 5 1015.8 1015.9 0.0
23/07:00am 6.7 4.2 6.4 98 0.1 S 9 13 5 7 1015.6 1015.7 0.0
23/06:30am 5.4 3.2 5.3 99 0.0 SW 6 9 3 5 1015.6 1015.7 0.0
23/06:00am 5.4 3.0 5.3 99 0.0 SW 7 9 4 5 1015.4 1015.5 0.0
23/05:30am 5.8 3.5 5.5 98 0.1 SW 7 7 4 4 1015.3 1015.4 0.0
23/05:00am 6.2 3.5 5.6 96 0.3 SSW 9 11 5 6 1015.2 1015.3 0.0
23/04:30am 6.6 3.5 5.7 94 0.4 S 11 13 6 7 1015.0 1015.1 0.0
23/04:00am 7.2 4.2 6.1 93 0.5 S 11 15 6 8 1015.0 1015.1 0.0
23/03:30am 7.2 4.6 6.1 93 0.5 SSW 9 15 5 8 1015.2 1015.3 0.0
23/03:00am 7.4 4.4 6.2 92 0.5 S 11 17 6 9 1015.2 1015.3 0.0
23/02:30am 7.9 4.6 6.5 91 0.6 S 13 20 7 11 1015.2 1015.3 0.0
23/02:00am 7.8 4.2 6.6 92 0.6 SSW 15 19 8 10 1015.5 1015.6 0.0
23/01:30am 8.1 3.7 6.7 91 0.7 SW 19 22 10 12 1015.8 1015.9 0.0
23/01:00am 8.1 4.5 6.6 90 0.7 SSW 15 20 8 11 1015.8 1015.9 0.0
23/12:30am 7.8 4.2 6.6 92 0.6 SW 15 20 8 11 1016.1 1016.2 0.0
23/12:00am 8.1 4.1 6.7 91 0.6 SSW 17 24 9 13 1016.1 1016.2 0.0
 
Date/Time
EST
Temp
°C
App
Temp
°C
Dew
Point
°C
Rel
Hum
%
Delta-T
°C
Wind Press
QNH
hPa
Press
MSL
hPa
Rain since
9am
mm
Dir  Spd
km/h
Gust
km/h
Spd
kts
Gust
kts
22/11:30pm 8.1 4.8 6.6 90 0.7 SW 13 17 7 9 1016.2 1016.3 0.0
22/11:00pm 8.4 4.4 6.5 88 0.9 SSW 17 24 9 13 1016.2 1016.3 0.0
22/10:30pm 8.7 4.1 6.7 87 0.9 SSW 20 26 11 14 1016.4 1016.5 0.0
22/10:00pm 8.5 4.9 6.6 88 0.9 SSW 15 20 8 11 1016.7 1016.8 0.0
22/09:30pm 8.8 5.2 6.6 86 1.0 SSW 15 17 8 9 1016.8 1016.9 0.0
22/09:00pm 9.4 5.4 6.7 83 1.3 S 17 24 9 13 1017.0 1017.1 0.0
22/08:30pm 9.6 5.0 6.5 81 1.5 SSW 20 28 11 15 1017.2 1017.3 0.0
22/08:00pm 9.7 5.1 6.6 81 1.5 SSW 20 26 11 14 1017.5 1017.6 0.0
22/07:30pm 10.2 5.9 7.1 81 1.5 SSW 19 24 10 13 1017.3 1017.4 0.0
22/07:00pm 10.5 6.1 7.4 81 1.5 SSW 20 28 11 15 1017.0 1017.1 0.0
22/06:30pm 11.1 7.4 7.8 80 1.6 SSW 17 22 9 12 1016.8 1016.9 0.0
22/06:00pm 11.6 7.3 7.7 77 1.9 SSW 20 32 11 17 1016.4 1016.5 0.0
22/05:30pm 12.2 7.9 7.7 74 2.2 SSW 20 30 11 16 1016.3 1016.4 0.0
22/05:00pm 13.6 9.0 8.2 70 2.7 SSW 22 32 12 17 1015.9 1016.0 0.0
22/04:30pm 13.3 7.8 7.7 69 2.8 SSW 26 35 14 19 1015.6 1015.7 0.0
22/04:00pm 13.6 8.8 8.7 72 2.5 SSW 24 32 13 17 1015.2 1015.3 0.0
22/03:30pm 14.1 8.3 9.3 73 2.5 SSW 30 39 16 21 1015.0 1015.1 0.0
22/03:00pm 14.1 9.4 9.1 72 2.6 SSW 24 37 13 20 1015.1 1015.2 0.0
22/02:30pm 13.9 8.0 9.1 73 2.5 SSW 30 37 16 20 1015.1 1015.2 0.0
22/02:00pm 14.1 8.2 9.1 72 2.6 SSW 30 39 16 21 1015.0 1015.1 0.0

Other Formats:

Comma delimited format used in spreadsheet applications
http://www.bom.gov.au/fwo/IDV60801/IDV60801.94875.axf

JavaScript Object Notation format (JSON) in row-major order
http://www.bom.gov.au/fwo/IDV60801/IDV60801.94875.json